Yorkton, Canada
Current Conditions -  °F | °C
As of 9:00 AM on Thursday 23 Oct 2014 (Local Time) from CYQV Reporting Station
Scattered Clouds Scattered Clouds  
Wind Chill: 46°   Ceiling: Unl
Heat Index: 46°   Visibility: 9mi
Dew Point: 41°   Wind: 2mph
Humidity: 81%   Direction: NA
Pressure: 29.74"   Gusts: NA
Location:  51.2°N, 102.45°W
Report Text: CYQV 231500Z AUTO VRB02KT 9SM SCT009 08/05 A2974 RMK SLP084
Loading
Personal Weather Stations






























Interactive Weather Map
Tropical Storm Tracking
New forecast layout! Learn more

10-Day Weather Forecast

Advertisements
Track Severe Weather on mobile